createdAt,value
2022-08-12T00:00:54.831Z,18.32
2022-08-12T00:04:55.142Z,18.20
2022-08-12T00:08:57.880Z,18.16
2022-08-12T00:12:58.227Z,18.20
2022-08-12T00:17:01.199Z,18.26
2022-08-12T00:21:01.635Z,18.31
2022-08-12T00:25:02.100Z,18.15
2022-08-12T00:29:02.975Z,17.95
2022-08-12T00:33:04.542Z,17.82
2022-08-12T00:37:13.004Z,17.75
2022-08-12T00:41:14.369Z,17.77
2022-08-12T00:44:57.893Z,17.76
2022-08-12T00:48:43.069Z,17.68
2022-08-12T00:52:26.762Z,17.70
2022-08-12T00:56:09.909Z,17.73
2022-08-12T00:59:54.727Z,17.67
2022-08-12T01:03:57.074Z,17.60
2022-08-12T01:08:02.738Z,17.61
2022-08-12T01:11:45.597Z,17.66
2022-08-12T01:15:29.240Z,17.66
2022-08-12T01:19:12.940Z,17.65
2022-08-12T01:23:12.501Z,17.63
2022-08-12T01:26:58.348Z,17.64
2022-08-12T01:30:42.927Z,17.66
2022-08-12T01:34:39.344Z,17.62
2022-08-12T01:38:29.820Z,17.61
2022-08-12T01:42:15.425Z,17.62
2022-08-12T01:46:06.634Z,17.60
2022-08-12T01:50:00.599Z,17.56
2022-08-12T01:54:04.611Z,17.53
2022-08-12T01:57:58.194Z,17.53
2022-08-12T02:01:44.149Z,17.49
2022-08-12T02:05:53.152Z,17.47
2022-08-12T02:10:06.012Z,17.40
2022-08-12T02:14:00.720Z,17.38
2022-08-12T02:17:55.877Z,17.43
2022-08-12T02:21:43.256Z,17.43
2022-08-12T02:25:31.253Z,17.44
2022-08-12T02:29:15.966Z,17.44
2022-08-12T02:33:01.579Z,17.40
2022-08-12T02:36:46.141Z,17.35
2022-08-12T02:40:30.280Z,17.32
2022-08-12T02:44:16.569Z,17.31
2022-08-12T02:48:04.271Z,17.30
2022-08-12T02:51:47.052Z,17.20
2022-08-12T02:55:34.782Z,17.06
2022-08-12T02:59:22.727Z,17.06
2022-08-12T03:03:07.500Z,17.14
2022-08-12T03:07:10.617Z,17.20
2022-08-12T03:10:54.230Z,17.11
2022-08-12T03:14:40.548Z,16.94
2022-08-12T03:18:28.737Z,16.91
2022-08-12T03:22:14.572Z,16.89
2022-08-12T03:25:58.973Z,16.89
2022-08-12T03:29:50.307Z,16.81
2022-08-12T03:33:36.492Z,16.69
2022-08-12T03:37:21.196Z,16.69
2022-08-12T03:41:24.540Z,16.67
2022-08-12T03:45:50.047Z,16.74
2022-08-12T03:49:53.690Z,16.81
2022-08-12T03:53:54.110Z,16.69
2022-08-12T03:57:54.632Z,16.63
2022-08-12T04:01:41.139Z,16.56
2022-08-12T04:05:24.202Z,16.43
2022-08-12T04:09:27.831Z,16.28
2022-08-12T04:13:19.739Z,16.12
2022-08-12T04:17:05.300Z,16.06
2022-08-12T04:20:49.968Z,16.02
2022-08-12T04:24:34.961Z,15.96
2022-08-12T04:28:27.898Z,15.92
2022-08-12T04:32:12.415Z,15.95
2022-08-12T04:35:56.339Z,15.97
2022-08-12T04:39:40.428Z,16.01
2022-08-12T04:43:54.489Z,15.95
2022-08-12T04:47:27.833Z,15.91
2022-08-12T04:51:10.773Z,15.94
2022-08-12T04:54:53.530Z,16.05
2022-08-12T04:58:36.323Z,16.15
2022-08-12T05:02:21.008Z,16.29
2022-08-12T05:06:07.196Z,16.37
2022-08-12T05:10:01.062Z,16.48
2022-08-12T05:13:45.501Z,16.64
2022-08-12T05:17:28.575Z,16.72
2022-08-12T05:21:13.035Z,16.71
2022-08-12T05:24:56.155Z,16.66
2022-08-12T05:28:39.439Z,16.67
2022-08-12T05:32:22.227Z,16.75
2022-08-12T05:36:07.546Z,16.85
2022-08-12T05:39:51.735Z,16.94
2022-08-12T05:43:34.972Z,17.03
2022-08-12T05:47:17.870Z,17.27
2022-08-12T05:51:00.692Z,17.35
2022-08-12T05:54:57.073Z,17.43
2022-08-12T05:58:42.146Z,17.44
2022-08-12T06:02:26.296Z,17.50
2022-08-12T06:06:09.192Z,17.60
2022-08-12T06:09:52.051Z,17.70
2022-08-12T06:13:54.078Z,17.78
2022-08-12T06:17:38.767Z,17.82
2022-08-12T06:21:23.441Z,17.89
2022-08-12T06:25:07.084Z,17.97
2022-08-12T06:28:51.321Z,18.05
2022-08-12T06:32:34.565Z,18.15
2022-08-12T06:36:22.611Z,18.27
2022-08-12T06:40:06.356Z,18.36
2022-08-12T06:44:05.061Z,18.49
2022-08-12T06:47:50.470Z,18.68
2022-08-12T06:51:34.680Z,18.90
2022-08-12T06:55:20.611Z,19.00
2022-08-12T06:59:03.370Z,19.04
2022-08-12T07:02:46.712Z,19.02
2022-08-12T07:06:30.078Z,19.08
2022-08-12T07:10:14.211Z,19.12
2022-08-12T07:14:11.602Z,19.17
2022-08-12T07:18:00.307Z,19.23
2022-08-12T07:22:01.894Z,19.28
2022-08-12T07:25:46.965Z,19.32
2022-08-12T07:30:03.613Z,19.36
2022-08-12T07:33:33.029Z,19.41
2022-08-12T07:37:17.732Z,19.48
2022-08-12T07:41:06.716Z,19.53
2022-08-12T07:44:51.725Z,19.57
2022-08-12T07:48:39.500Z,19.79
2022-08-12T07:52:22.285Z,19.90
2022-08-12T07:56:09.211Z,19.90
2022-08-12T07:59:52.823Z,19.96
2022-08-12T08:03:47.430Z,20.06
2022-08-12T08:07:31.717Z,20.09
2022-08-12T08:11:33.536Z,20.18
2022-08-12T08:15:20.215Z,20.17
2022-08-12T08:19:03.005Z,20.18
2022-08-12T08:22:45.779Z,20.13
2022-08-12T08:26:29.971Z,20.16
2022-08-12T08:30:13.544Z,20.27
2022-08-12T08:34:05.498Z,20.29
2022-08-12T08:38:08.377Z,20.34
2022-08-12T08:42:18.674Z,20.40
2022-08-12T08:46:05.655Z,20.40
2022-08-12T08:49:48.517Z,20.47
2022-08-12T08:53:31.246Z,20.54
2022-08-12T08:57:15.330Z,20.56
2022-08-12T09:00:59.382Z,20.61
2022-08-12T09:05:11.235Z,20.69
2022-08-12T09:08:46.324Z,20.76
2022-08-12T09:16:52.353Z,20.93
2022-08-12T09:20:37.049Z,21.02
2022-08-12T09:24:20.144Z,21.11
2022-08-12T09:28:10.757Z,21.26
2022-08-12T09:32:06.804Z,21.39
2022-08-12T09:36:04.232Z,21.53
2022-08-12T09:40:05.884Z,21.60
2022-08-12T09:44:39.280Z,21.71
2022-08-12T09:48:20.236Z,21.75
2022-08-12T09:52:05.501Z,21.76
2022-08-12T09:56:32.066Z,21.78
2022-08-12T10:00:15.232Z,21.81
2022-08-12T10:04:05.094Z,21.79
2022-08-12T10:07:48.670Z,21.84
2022-08-12T10:12:10.327Z,21.97
2022-08-12T10:16:01.512Z,22.11
2022-08-12T10:19:51.568Z,22.23
2022-08-12T10:23:40.169Z,22.37
2022-08-12T10:28:04.704Z,22.57
2022-08-12T10:32:21.878Z,22.81
2022-08-12T10:35:49.644Z,23.02
2022-08-12T10:40:02.988Z,23.20
2022-08-12T10:43:55.492Z,23.34
2022-08-12T10:48:14.930Z,23.49
2022-08-12T10:52:02.746Z,23.60
2022-08-12T10:55:48.021Z,23.57
2022-08-12T10:59:58.129Z,23.46
2022-08-12T11:04:22.643Z,23.42
2022-08-12T11:08:34.517Z,23.35
2022-08-12T11:12:36.833Z,23.33
2022-08-12T11:16:03.989Z,23.33
2022-08-12T11:19:51.596Z,23.27
2022-08-12T11:23:37.090Z,23.24
2022-08-12T11:27:20.083Z,23.21
2022-08-12T11:31:04.314Z,23.28
2022-08-12T11:34:52.756Z,23.30
2022-08-12T11:38:38.603Z,23.35
2022-08-12T11:42:32.262Z,23.50
2022-08-12T11:46:18.468Z,23.52
2022-08-12T11:50:01.387Z,23.61
2022-08-12T11:53:56.962Z,23.71
2022-08-12T11:58:14.307Z,23.82
2022-08-12T12:02:00.986Z,23.84
2022-08-12T12:05:47.443Z,23.86
2022-08-12T12:09:52.795Z,24.00
2022-08-12T12:14:07.578Z,24.14
2022-08-12T12:17:38.849Z,24.28
2022-08-12T12:21:48.460Z,24.43
2022-08-12T12:25:59.742Z,24.57
2022-08-12T12:30:19.806Z,24.77
2022-08-12T12:33:58.101Z,24.86
2022-08-12T12:38:03.643Z,24.78
2022-08-12T12:42:42.956Z,24.75
2022-08-12T12:45:46.315Z,24.85
2022-08-12T12:49:29.413Z,24.98
2022-08-12T12:54:05.121Z,25.12
2022-08-12T12:57:36.223Z,25.27
2022-08-12T13:01:32.029Z,25.41
2022-08-12T13:05:16.965Z,25.49
2022-08-12T13:09:13.522Z,25.71
2022-08-12T13:12:59.012Z,25.85
2022-08-12T13:16:43.801Z,25.72
2022-08-12T13:20:37.846Z,25.71
2022-08-12T13:24:22.639Z,25.88
2022-08-12T13:28:06.786Z,26.03
2022-08-12T13:32:31.140Z,26.24
2022-08-12T13:36:05.486Z,26.47
2022-08-12T13:39:50.620Z,26.76
2022-08-12T13:43:41.397Z,26.80
2022-08-12T13:47:24.920Z,26.98
2022-08-12T13:51:07.653Z,27.12
2022-08-12T13:54:56.267Z,27.23
2022-08-12T13:58:52.680Z,27.31
2022-08-12T14:02:36.213Z,27.48
2022-08-12T14:06:21.099Z,27.75
2022-08-12T14:10:21.669Z,27.98
2022-08-12T14:14:15.494Z,28.11
2022-08-12T14:18:06.943Z,28.16
2022-08-12T14:22:00.212Z,28.29
2022-08-12T14:25:48.576Z,28.68
2022-08-12T14:29:56.522Z,28.85
2022-08-12T14:33:44.402Z,28.82
2022-08-12T14:37:57.203Z,29.11
2022-08-12T14:41:37.110Z,29.44
2022-08-12T14:45:44.643Z,29.91
2022-08-12T14:50:41.597Z,30.31
2022-08-12T14:57:56.840Z,30.70
2022-08-12T15:01:41.832Z,31.16
2022-08-12T15:06:05.804Z,31.58
2022-08-12T15:09:29.380Z,32.66
2022-08-12T15:13:12.417Z,33.91
2022-08-12T15:17:00.663Z,34.31
2022-08-12T15:20:43.833Z,35.52
2022-08-12T15:24:26.658Z,36.74
2022-08-12T15:28:20.611Z,37.86
2022-08-12T15:32:16.063Z,38.49
2022-08-12T15:35:59.072Z,38.19
2022-08-12T15:39:55.382Z,35.46
2022-08-12T15:44:17.026Z,35.11
2022-08-12T15:47:50.276Z,35.67
2022-08-12T15:51:58.920Z,35.96
2022-08-12T15:55:46.217Z,35.45
2022-08-12T15:59:51.975Z,34.82
2022-08-12T16:03:46.008Z,33.35
2022-08-12T16:07:37.057Z,32.97
2022-08-12T16:11:22.233Z,33.12
2022-08-12T16:15:05.612Z,32.85
2022-08-12T16:18:49.918Z,31.79
2022-08-12T16:22:32.651Z,30.61
2022-08-12T16:26:20.023Z,30.25
2022-08-12T16:30:04.387Z,30.53
2022-08-12T16:33:58.978Z,30.56
2022-08-12T16:38:25.114Z,30.20
2022-08-12T16:41:48.212Z,29.93
2022-08-12T16:46:04.128Z,29.44
2022-08-12T16:49:43.518Z,29.75
2022-08-12T16:53:43.474Z,29.45
2022-08-12T16:57:35.109Z,29.21
2022-08-12T17:01:25.784Z,29.23
2022-08-12T17:05:12.547Z,29.17
2022-08-12T17:09:02.627Z,29.31
2022-08-12T17:12:45.679Z,29.42
2022-08-12T17:16:30.380Z,29.39
2022-08-12T17:20:35.187Z,29.28
2022-08-12T17:24:21.632Z,29.06
2022-08-12T17:28:06.346Z,28.64
2022-08-12T17:31:59.624Z,27.73
2022-08-12T17:35:50.243Z,26.86
2022-08-12T17:40:15.642Z,26.14
2022-08-12T17:43:51.804Z,25.57
2022-08-12T17:47:39.325Z,25.19
2022-08-12T17:51:24.441Z,24.82
2022-08-12T17:55:40.919Z,24.47
2022-08-12T17:59:12.373Z,24.07
2022-08-12T18:02:58.026Z,23.83
2022-08-12T18:06:44.192Z,23.64
2022-08-12T18:10:53.008Z,23.32
2022-08-12T18:14:41.413Z,23.06
2022-08-12T18:18:31.318Z,22.73
2022-08-12T18:22:17.737Z,22.57
2022-08-12T18:26:23.463Z,22.40
2022-08-12T18:30:07.990Z,22.30
2022-08-12T18:33:52.345Z,22.13
2022-08-12T18:37:42.214Z,21.99
2022-08-12T18:41:33.532Z,21.81
2022-08-12T18:45:19.800Z,21.70
2022-08-12T18:49:18.745Z,21.58
2022-08-12T18:53:04.601Z,21.49
2022-08-12T18:56:47.762Z,21.42
2022-08-12T19:00:32.149Z,21.31
2022-08-12T19:04:15.650Z,21.28
2022-08-12T19:08:02.010Z,21.11
2022-08-12T19:12:05.238Z,20.94
2022-08-12T19:15:47.987Z,20.83
2022-08-12T19:19:37.424Z,20.80
2022-08-12T19:23:24.825Z,20.81
2022-08-12T19:27:19.012Z,20.73
2022-08-12T19:31:44.890Z,20.66
2022-08-12T19:36:14.306Z,20.57
2022-08-12T19:40:10.160Z,20.50
2022-08-12T19:44:00.532Z,20.48
2022-08-12T19:47:46.875Z,20.41
2022-08-12T19:51:33.928Z,20.36
2022-08-12T19:55:21.342Z,20.28
2022-08-12T19:59:22.997Z,20.20
2022-08-12T20:03:06.403Z,20.17
2022-08-12T20:06:51.580Z,20.11
2022-08-12T20:10:37.125Z,19.99
2022-08-12T20:14:21.403Z,19.96
2022-08-12T20:18:43.694Z,19.95
2022-08-12T20:22:14.864Z,19.92
2022-08-12T20:26:08.780Z,19.87
2022-08-12T20:29:54.626Z,19.85
2022-08-12T20:33:56.256Z,19.78
2022-08-12T20:38:07.573Z,19.73
2022-08-12T20:41:43.592Z,19.67
2022-08-12T20:45:32.894Z,19.55
2022-08-12T20:49:33.812Z,19.51
2022-08-12T20:53:18.580Z,19.47
2022-08-12T20:57:10.342Z,19.40
2022-08-12T21:00:54.519Z,19.38
2022-08-12T21:04:55.311Z,19.34
2022-08-12T21:08:39.254Z,19.30
2022-08-12T21:12:28.783Z,19.29
2022-08-12T21:16:35.361Z,19.26
2022-08-12T21:20:22.748Z,19.25
2022-08-12T21:24:06.868Z,19.19
2022-08-12T21:27:59.491Z,19.11
2022-08-12T21:32:39.349Z,19.10
2022-08-12T21:35:50.484Z,19.07
2022-08-12T21:39:35.548Z,19.04
2022-08-12T21:43:19.698Z,18.99
2022-08-12T21:47:19.665Z,18.88
2022-08-12T21:51:22.668Z,18.83
2022-08-12T21:55:17.732Z,18.73
2022-08-12T21:59:01.886Z,18.55
2022-08-12T22:03:02.572Z,18.47
2022-08-12T22:06:53.267Z,18.50
2022-08-12T22:10:36.207Z,18.50
2022-08-12T22:14:21.584Z,18.52
2022-08-12T22:18:08.434Z,18.55
2022-08-12T22:21:54.678Z,18.60
2022-08-12T22:25:40.099Z,18.61
2022-08-12T22:29:40.364Z,18.58
2022-08-12T22:33:24.666Z,18.53
2022-08-12T22:37:11.491Z,18.51
2022-08-12T22:41:04.883Z,18.41
2022-08-12T22:45:06.541Z,18.32
2022-08-12T22:49:00.470Z,18.28
2022-08-12T22:52:43.973Z,18.32
2022-08-12T22:56:31.510Z,18.38
2022-08-12T23:00:27.030Z,18.43
2022-08-12T23:04:15.931Z,18.40
2022-08-12T23:08:13.706Z,18.31
2022-08-12T23:12:02.553Z,18.31
2022-08-12T23:15:47.472Z,18.27
2022-08-12T23:19:38.100Z,18.23
2022-08-12T23:23:21.420Z,18.22
2022-08-12T23:27:22.426Z,18.25
2022-08-12T23:31:06.407Z,18.19
2022-08-12T23:34:50.902Z,18.16
2022-08-12T23:38:34.470Z,18.18
2022-08-12T23:42:19.581Z,18.17
2022-08-12T23:46:08.902Z,18.18
2022-08-12T23:49:57.457Z,18.15
2022-08-12T23:53:43.893Z,18.16
2022-08-12T23:57:26.682Z,18.14
